• Join FlightAware (Why Join?)
  • Login
  • US Flag 
11:56PM EDT


 

Airport Tracker/Info


-or-


 

Live Flight TrackerFlight Track Log ✈ WAV760 ✈ 22-Oct-2013 ✈ PAFA / FAI - PATA / TAL

Flight Track Log - Related Links

Times and Time Zones

All times are in EDT time to prevent confusion due to time zone crossing. See the WAV760 flight status page for this flight to view local times or setup timezone preferences in your user account.

Time Position Orientation Groundspeed Altitude Reporting Facility
EDT Latitude Longitude Course Direction KTS MPH feet Rate Location/Type
09:07PM 64.8667 -147.9000 282° West 130 150 4,000  Level Anchorage Center
09:08PM 64.8833 -147.9833 295° West 130 150 4,900 840 Climbing Anchorage Center
09:09PM 64.8833 -148.0667 270° West 140 161 5,800 720 Climbing Anchorage Center
09:10PM 64.9000 -148.1667 291° West 140 161 6,400 660 Climbing Anchorage Center
09:11PM 64.8739 -148.4578 282° West  Level Estimated
09:11PM 64.9000 -148.2500 270° West 140 161 7,200  Level Anchorage Center
09:12PM 64.8833 -148.5584 282° West  Level FlightAware Approximate
09:12PM 64.9000 -148.3500 270° West 140 161 8,000  Level Anchorage Center
09:13PM 64.8926 -148.6591 282° West  Level FlightAware Approximate
09:13PM 64.9167 -148.4500 292° West 160 184 8,000  Level Anchorage Center
09:15PM 64.9333 -148.5333 295° West 150 173 8,000  Level Anchorage Center
09:16PM 64.9333 -148.6500 270° West 160 184 8,000  Level Anchorage Center
09:17PM 64.9500 -148.7500 292° West 160 184 8,000  Level Anchorage Center
09:18PM 64.9500 -148.8500 270° West 160 184 8,000  Level Anchorage Center
09:19PM 64.9667 -148.9667 289° West 160 184 8,000  Level Anchorage Center
09:20PM 64.9667 -149.0667 270° West 170 196 8,000  Level Anchorage Center
09:21PM 64.9833 -149.1667 292° West 170 196 8,000  Level Anchorage Center
09:22PM 64.9833 -149.2833 270° West 170 196 8,000  Level Anchorage Center
09:24PM 64.9965 -149.4843 279° West  Level FlightAware Approximate
09:31PM 65.0413 -150.2011 279° West  Level FlightAware Approximate
09:32PM 65.0474 -150.3037 278° West  Level FlightAware Approximate
09:33PM 65.0535 -150.4064 278° West  Level FlightAware Approximate
09:34PM 65.0594 -150.5090 278° West  Level FlightAware Approximate
09:35PM 65.0653 -150.6118 278° West  Level FlightAware Approximate
09:36PM 65.0712 -150.7146 278° West  Level FlightAware Approximate
09:37PM 65.0769 -150.8174 278° West  Level FlightAware Approximate
09:38PM 65.0826 -150.9203 278° West  Level FlightAware Approximate
09:39PM 65.0904 -151.0242 281° West  Level FlightAware Approximate
09:40PM 65.0983 -151.1263 280° West  Level FlightAware Approximate
09:41PM 65.1062 -151.2285 280° West  Level FlightAware Approximate
09:42PM 65.1140 -151.3307 280° West  Level FlightAware Approximate
09:43PM 65.1207 -151.4333 278° West  Level FlightAware Approximate
09:44PM 65.1269 -151.5362 278° West  Level FlightAware Approximate
09:45PM 65.1330 -151.6391 278° West  Level FlightAware Approximate
09:46PM 65.1390 -151.7421 278° West  Level FlightAware Approximate
09:47PM 65.1450 -151.8452 278° West  Level FlightAware Approximate
09:48PM 65.1515 -151.9480 283° West  Level FlightAware Approximate
09:49PM 65.1616 -152.0492 283° West  Level FlightAware Approximate
09:50PM 65.1667 -152.1000 283° West  Level FlightAware Approximate
09:51PM 65.1744 -152.1081 283° West  Level Estimated
09:52PM 65.1744 -152.1081 283° West  Level Estimated
09:53PM 65.1744 -152.1081 283° West  Level Estimated
09:54PM 65.1744 -152.1081 283° West  Level Estimated
09:55PM 65.1744 -152.1081 283° West  Level Estimated
09:56PM 65.1744 -152.1081 283° West  Level Estimated
09:57PM 65.1744 -152.1081 283° West  Level Estimated
09:58PM 65.1744 -152.1081 283° West  Level Estimated
09:59PM 65.1744 -152.1081 283° West  Level Estimated
10:00PM 65.1744 -152.1081 283° West  Level Estimated
10:01PM 65.1744 -152.1081 283° West  Level Estimated
10:02PM 65.1744 -152.1081 283° West  Level Estimated
10:03PM 65.1744 -152.1081 283° West  Level Estimated